Detall de PIREP

Printer-friendly versionPDF version

[2018/02/21 08:07:00]
Flight IATA:CT2100
Pilot Number:041
Company ICAO:CAT
Aircraft Type:BE58/A
PAX:3
Departing Airport: LEVC
Destination Airport: LEAS
Alternate Airport:LEVX
Online: VATSIM
Route:CENT7A CENTA/N0177F110 A33 PRADO UN733 ZMR UM30 OMESI/N0175F100 DCT ROVAK R107 XONDA XOND1L
Flight Level:FL100
No Slew and time accel
No pause
Crash detect
Detect pilot in Cockpit between each 30 and 45 minutes
08:07 Zero fuel Weight: 4757 Lbs, Fuel Weight: 714 Lbs
08:07 VATSIM:LEVC 210730Z 31014KT CAVOK 12/02 Q1007 NOSIG
08:07 VATSIM:LEAS 210730Z VRB02KT 9999 FEW025 SCT052 07/03 Q1020 NOSIG
08:07 VOICE CATALONIAN
08:11 Parking Brakes off
08:16 Take-off
08:16 Take off Weight: 5465 Lbs
08:16 Wind: 308º @ 014 Knots Heading: 297º
08:16 POS N39º 29´ 23´´ W000º 28´ 59´´
08:16 Flaps:4 at 118 Knots
08:16 Gear Up: 114 Knots
08:16 Flaps:0 at 111 Knots
08:29 TOC
08:29 Fuel Weight: 668 Lb
08:31 Wind:334º@016 Knots Heading: 303º Ground Speed: 126 Knots Altitude 10406 ft
08:46 Wind:359º@023 Knots Heading: 305º Ground Speed: 165 Knots Altitude 10843 ft
09:01 Wind:359º@023 Knots Heading: 304º Ground Speed: 168 Knots Altitude 10928 ft
09:16 Wind:016º@035 Knots Heading: 308º Ground Speed: 170 Knots Altitude 10925 ft
09:31 Wind:021º@042 Knots Heading: 309º Ground Speed: 170 Knots Altitude 10954 ft
09:46 Wind:031º@037 Knots Heading: 307º Ground Speed: 180 Knots Altitude 11017 ft
10:01 Wind:029º@036 Knots Heading: 359º Ground Speed: 149 Knots Altitude 11026 ft
10:16 Wind:040º@033 Knots Heading: 359º Ground Speed: 150 Knots Altitude 10049 ft
10:29 TOD
10:29 Fuel Weight: 409 Lb
10:31 Wind:031º@026 Knots Heading: 358º Ground Speed: 145 Knots Altitude 8585 ft
10:40 Flaps:4 at 114 Knots
10:46 Wind:005º@006 Knots Heading: 009º Ground Speed: 110 Knots Altitude 3743 ft
10:50 Gear Down: 107 Knots
10:50 Flaps:8 at 100 Knots
10:56 TouchDown:Rate -247 ft/min Speed: 88 Knots
10:56 Flaps:4 at 72 Knots
10:56 Flaps:0 at 70 Knots
10:56 VATSIM:LEAS 211030Z 13004KT 080V170 9999 SCT032 BKN060 08/06 Q1020 NOSIG
10:56 Land
10:56 Wind:000º@000 Knots
10:56 Heading: 289º
10:56 Flight Duration: 02:40
10:56 Landing Weight: 5117 Lbs
10:56 POS N43º 33´ 48´´ W006º 02´ 02´´
11:00 Parking brakes on
11:00 Block to Block Duration: 02:49
11:00 Final Fuel: 359 Lbls
11:00 Spent Fuel: 354 Lbls
11:00 Flight Length: 411 NM
11:00 TOD Land Length: 56 NM

Exportar CSV

Powered by Drupal - Modified by Danger4k